Hikarimaru No.17 — JD2956 — position and weather

sailwx.info

Track history (hours):
 
Tides and Currents Weather Stations Pressure Air Temp Water Temp Dewpoint Dewpoint Depression Visibility Wind Speed Wind Dir Waves Ship Positions

Hikarimaru No.17

Last reported at 2014-Sep-01 23:32 UTC. Time now 2014-Sep-01 23:50 UTC.
Position N 34°33' E 135°21'.

Length 105 m; draft 5.5 m.

Type: Tanker. MMSI: 431000984.

Date/timePositionNaut miles runAvg speedWind from/ knotsBaromVisibWave heightAir tempDewpointWater temp
2014-Sep-01 23:32N 34°33' E 135°21'2 1.6
2014-Sep-01 22:33N 34°33' E 135°19'0 0.0
2014-Sep-01 21:27N 34°33' E 135°19'0 0.0
2014-Sep-01 20:33N 34°33' E 135°19'0 0.0
2014-Sep-01 19:27N 34°33' E 135°19'0 0.0
2014-Sep-01 18:33N 34°33' E 135°19'0 0.0
2014-Sep-01 17:15N 34°32' E 135°19'0 0.0
2014-Sep-01 16:33N 34°32' E 135°19'0 0.0
2014-Sep-01 15:27N 34°32' E 135°19'0 0.0
2014-Sep-01 14:27N 34°32' E 135°19'0 0.0
2014-Sep-01 13:33N 34°32' E 135°19'0 0.0
2014-Sep-01 12:21N 34°32' E 135°19'0 0.0
2014-Sep-01 11:27N 34°32' E 135°19'0 0.1
2014-Sep-01 10:33N 34°32' E 135°19'0 0.0
2014-Sep-01 09:33N 34°32' E 135°19'0 0.0
2014-Sep-01 08:33N 34°32' E 135°19'0 0.0
2014-Sep-01 07:15N 34°32' E 135°19'5 6.5
2014-Sep-01 06:33N 34°30' E 135°15'1413.2
2014-Sep-01 05:28N 34°20' E 135°02'1112.0
2014-Sep-01 04:33N 34°09' E 135°04'7 1.0
2014-Aug-31 21:32N 34°03' E 135°02'9 8.7
2014-Aug-31 20:32N 34°09' E 135°08'0 0.0
2014-Aug-31 19:32N 34°09' E 135°08'0 0.0
2014-Aug-31 18:32N 34°09' E 135°08'0 0.0
2014-Aug-31 17:32N 34°09' E 135°08'0 0.1
2014-Aug-31 16:32N 34°10' E 135°08'0 0.0
2014-Aug-31 15:29N 34°10' E 135°08'0 0.0
2014-Aug-31 14:32N 34°10' E 135°08'0 0.0
2014-Aug-31 13:32N 34°10' E 135°08'0 0.0
2014-Aug-31 11:32N 34°10' E 135°08'0 0.0
2014-Aug-31 10:32N 34°10' E 135°08'0 0.0
2014-Aug-31 09:32N 34°10' E 135°08'0 0.0
2014-Aug-31 08:29N 34°09' E 135°08'4 4.7
2014-Aug-31 07:33N 34°12' E 135°04'1111.2
2014-Aug-31 06:33N 34°23' E 135°03'1413.7
2014-Aug-31 05:33N 34°31' E 135°17'5 0.8
2014-Aug-30 23:33N 34°33' E 135°23'3 2.5
2014-Aug-30 22:23N 34°32' E 135°20'0 0.1
2014-Aug-30 21:29N 34°32' E 135°20'0 0.0
2014-Aug-30 20:29N 34°32' E 135°20'0 0.0
2014-Aug-30 19:23N 34°32' E 135°20'0 0.0
2014-Aug-30 18:29N 34°32' E 135°20'0 0.1
2014-Aug-30 17:29N 34°32' E 135°20'0 0.0
2014-Aug-30 16:17N 34°32' E 135°20'0 0.0
2014-Aug-30 15:29N 34°32' E 135°20'0 0.0
2014-Aug-30 14:29N 34°32' E 135°20'0 0.0
2014-Aug-30 13:29N 34°32' E 135°20'0 0.0
2014-Aug-30 12:23N 34°32' E 135°20'0 0.0
2014-Aug-30 11:23N 34°32' E 135°20'0 0.0
2014-Aug-30 10:29N 34°32' E 135°20'0 0.0
2014-Aug-30 09:05N 34°32' E 135°20'611.3
2014-Aug-30 08:33N 34°34' E 135°13'1515.0
2014-Aug-30 07:33N 34°37' E 134°55'10 0.2
2014-Aug-28 12:29N 34°40' E 134°43'1515.0
2014-Aug-28 11:30N 34°38' E 135°01'1212.1
2014-Aug-28 10:32N 34°26' E 135°03'1312.8
2014-Aug-28 09:33N 34°13' E 135°01'8 1.6
2014-Aug-28 04:32N 34°07' E 135°07'1 0.4
2014-Aug-28 03:17N 34°08' E 135°07'4 2.2
2014-Aug-28 01:32N 34°09' E 135°11'0 0.0
2014-Aug-28 00:17N 34°09' E 135°11'0 0.2
2014-Aug-27 23:26N 34°09' E 135°11'2 2.6
2014-Aug-27 22:33N 34°09' E 135°08'0 0.0
2014-Aug-27 21:33N 34°09' E 135°08'0 0.0
2014-Aug-27 20:33N 34°09' E 135°08'0 0.0
2014-Aug-27 19:33N 34°09' E 135°08'0 0.0
2014-Aug-27 18:33N 34°09' E 135°08'0 0.1
2014-Aug-27 17:33N 34°09' E 135°09'0 0.0
2014-Aug-27 16:33N 34°09' E 135°09'1 0.6
2014-Aug-27 15:34N 34°10' E 135°08'1211.8
2014-Aug-27 14:32N 34°20' E 134°59'1313.7
2014-Aug-27 13:33N 34°28' E 135°12'1211.3
2014-Aug-27 12:32N 34°33' E 135°25'1 0.3
2014-Aug-27 07:33N 34°33' E 135°23'1312.9
2014-Aug-27 06:33N 34°26' E 135°10'1212.3
2014-Aug-27 05:33N 34°18' E 134°59'1212.1
2014-Aug-27 04:33N 34°06' E 135°00'5 0.8
2014-Aug-26 22:32N 34°01' E 135°02'10 9.2
2014-Aug-26 21:30N 34°10' E 135°07'0 0.1
2014-Aug-26 20:33N 34°10' E 135°07'0 0.0
2014-Aug-26 19:33N 34°10' E 135°07'0 0.0
2014-Aug-26 18:33N 34°10' E 135°07'0 0.0
2014-Aug-26 17:33N 34°10' E 135°07'0 0.0
2014-Aug-26 16:33N 34°10' E 135°07'0 0.0
2014-Aug-26 15:33N 34°10' E 135°07'0 0.1
2014-Aug-26 14:21N 34°10' E 135°07'0 0.1
2014-Aug-26 13:33N 34°10' E 135°07'0 0.0
2014-Aug-26 12:33N 34°10' E 135°07'7 7.3
2014-Aug-26 11:33N 34°14' E 135°00'1010.0
2014-Aug-26 10:33N 34°24' E 135°04'1413.6
2014-Aug-26 09:34N 34°31' E 135°18'6 1.2
2014-Aug-26 04:23N 34°33' E 135°25'3 4.0
2014-Aug-26 03:33N 34°33' E 135°21'1 1.1
2014-Aug-26 02:23N 34°32' E 135°20'0 0.0
2014-Aug-26 01:23N 34°32' E 135°20'0 0.0
2014-Aug-26 00:29N 34°32' E 135°20'0 0.0
2014-Aug-25 22:29N 34°32' E 135°20'0 0.0
2014-Aug-25 21:29N 34°32' E 135°20'0 0.1
2014-Aug-25 20:23N 34°32' E 135°20'0 0.0
2014-Aug-25 19:29N 34°32' E 135°20'0 0.0
2014-Aug-25 18:23N 34°32' E 135°20'0 0.0
2014-Aug-25 17:05N 34°32' E 135°20'0 0.0
2014-Aug-25 16:17N 34°32' E 135°20'0 0.0
2014-Aug-25 15:23N 34°32' E 135°20'0 0.0
2014-Aug-25 14:29N 34°32' E 135°20'0 0.1
2014-Aug-25 13:17N 34°32' E 135°20'0 0.1
2014-Aug-25 12:29N 34°32' E 135°20'0 0.0
2014-Aug-25 11:23N 34°32' E 135°20'0 0.0
2014-Aug-25 10:29N 34°32' E 135°20'0 0.0
2014-Aug-25 09:29N 34°32' E 135°20'0 0.0
2014-Aug-25 07:29N 34°32' E 135°20'0 0.0
2014-Aug-25 06:23N 34°32' E 135°20'0 0.0
2014-Aug-25 05:29N 34°32' E 135°20'0 0.0
2014-Aug-25 04:29N 34°32' E 135°20'8 8.6
2014-Aug-25 03:33N 34°27' E 135°12'1512.9
2014-Aug-25 02:26N 34°17' E 134°59'1011.8
2014-Aug-25 01:34N 34°10' E 135°07'0 0.1
2014-Aug-25 00:32N 34°10' E 135°07'0 0.0
2014-Aug-24 23:32N 34°10' E 135°07'0 0.0
2014-Aug-24 22:29N 34°10' E 135°07'0 0.0
2014-Aug-24 21:32N 34°10' E 135°07'0 0.0
2014-Aug-24 20:32N 34°10' E 135°07'0 0.0
2014-Aug-24 19:32N 34°10' E 135°07'0 0.0
2014-Aug-24 18:32N 34°10' E 135°07'0 0.0
2014-Aug-24 17:32N 34°10' E 135°07'0 0.0
2014-Aug-24 16:29N 34°10' E 135°07'0 0.0
2014-Aug-24 15:32N 34°10' E 135°07'0 0.0
2014-Aug-24 14:32N 34°10' E 135°07'0 0.0
2014-Aug-24 13:32N 34°10' E 135°07'0 0.1
2014-Aug-24 12:32N 34°10' E 135°07'0 0.1
2014-Aug-24 11:32N 34°10' E 135°07'0 0.1
2014-Aug-24 10:32N 34°10' E 135°07'0 0.0
2014-Aug-24 09:32N 34°10' E 135°07'0 0.0
2014-Aug-24 08:29N 34°10' E 135°07'0 0.0
2014-Aug-24 07:32N 34°10' E 135°07'0 0.1
2014-Aug-24 06:32N 34°10' E 135°07'0 0.1
2014-Aug-24 05:32N 34°10' E 135°07'0 0.0
2014-Aug-24 04:32N 34°10' E 135°07'0 0.0
2014-Aug-24 03:32N 34°10' E 135°07'0 0.0
2014-Aug-24 02:32N 34°10' E 135°07'3 2.6
2014-Aug-24 01:34N 34°12' E 135°09'0 0.0
2014-Aug-24 00:22N 34°12' E 135°09'0 0.0
2014-Aug-23 23:34N 34°12' E 135°09'0 0.0
2014-Aug-23 22:34N 34°12' E 135°09'0 0.0
2014-Aug-23 21:31N 34°12' E 135°09'0 0.0
2014-Aug-23 20:34N 34°12' E 135°09'0 0.0
2014-Aug-23 19:34N 34°12' E 135°09'0 0.0
2014-Aug-23 03:34N 34°12' E 135°09'0 0.0
2014-Aug-23 02:33N 34°12' E 135°09'0 0.0
2014-Aug-23 01:33N 34°12' E 135°09'3 2.8
2014-Aug-23 00:33N 34°10' E 135°07'  
Track history (hours):
 
Tides and Currents Weather Stations Pressure Air Temp Water Temp Dewpoint Dewpoint Depression Visibility Wind Speed Wind Dir Waves Ship Positions

Hikarimaru No.17

Last reported at 2014-Sep-01 23:32 UTC. Time now 2014-Sep-01 23:50 UTC.
Position N 34°33' E 135°21'.

Length 105 m; draft 5.5 m.

Type: Tanker. MMSI: 431000984.

Date/timePositionNaut miles runAvg speedWind from/ knotsBaromVisibWave heightAir tempDewpointWater temp
2014-Sep-01 23:32N 34°33' E 135°21'2 1.6
2014-Sep-01 22:33N 34°33' E 135°19'0 0.0
2014-Sep-01 21:27N 34°33' E 135°19'0 0.0
2014-Sep-01 20:33N 34°33' E 135°19'0 0.0
2014-Sep-01 19:27N 34°33' E 135°19'0 0.0
2014-Sep-01 18:33N 34°33' E 135°19'0 0.0
2014-Sep-01 17:15N 34°32' E 135°19'0 0.0
2014-Sep-01 16:33N 34°32' E 135°19'0 0.0
2014-Sep-01 15:27N 34°32' E 135°19'0 0.0
2014-Sep-01 14:27N 34°32' E 135°19'0 0.0
2014-Sep-01 13:33N 34°32' E 135°19'0 0.0
2014-Sep-01 12:21N 34°32' E 135°19'0 0.0
2014-Sep-01 11:27N 34°32' E 135°19'0 0.1
2014-Sep-01 10:33N 34°32' E 135°19'0 0.0
2014-Sep-01 09:33N 34°32' E 135°19'0 0.0
2014-Sep-01 08:33N 34°32' E 135°19'0 0.0
2014-Sep-01 07:15N 34°32' E 135°19'5 6.5
2014-Sep-01 06:33N 34°30' E 135°15'1413.2
2014-Sep-01 05:28N 34°20' E 135°02'1112.0
2014-Sep-01 04:33N 34°09' E 135°04'7 1.0
2014-Aug-31 21:32N 34°03' E 135°02'9 8.7
2014-Aug-31 20:32N 34°09' E 135°08'0 0.0
2014-Aug-31 19:32N 34°09' E 135°08'0 0.0
2014-Aug-31 18:32N 34°09' E 135°08'0 0.0
2014-Aug-31 17:32N 34°09' E 135°08'0 0.1
2014-Aug-31 16:32N 34°10' E 135°08'0 0.0
2014-Aug-31 15:29N 34°10' E 135°08'0 0.0
2014-Aug-31 14:32N 34°10' E 135°08'0 0.0
2014-Aug-31 13:32N 34°10' E 135°08'0 0.0
2014-Aug-31 11:32N 34°10' E 135°08'0 0.0
2014-Aug-31 10:32N 34°10' E 135°08'0 0.0
2014-Aug-31 09:32N 34°10' E 135°08'0 0.0
2014-Aug-31 08:29N 34°09' E 135°08'4 4.7
2014-Aug-31 07:33N 34°12' E 135°04'1111.2
2014-Aug-31 06:33N 34°23' E 135°03'1413.7
2014-Aug-31 05:33N 34°31' E 135°17'5 0.8
2014-Aug-30 23:33N 34°33' E 135°23'3 2.5
2014-Aug-30 22:23N 34°32' E 135°20'0 0.1
2014-Aug-30 21:29N 34°32' E 135°20'0 0.0
2014-Aug-30 20:29N 34°32' E 135°20'0 0.0
2014-Aug-30 19:23N 34°32' E 135°20'0 0.0
2014-Aug-30 18:29N 34°32' E 135°20'0 0.1
2014-Aug-30 17:29N 34°32' E 135°20'0 0.0
2014-Aug-30 16:17N 34°32' E 135°20'0 0.0
2014-Aug-30 15:29N 34°32' E 135°20'0 0.0
2014-Aug-30 14:29N 34°32' E 135°20'0 0.0
2014-Aug-30 13:29N 34°32' E 135°20'0 0.0
2014-Aug-30 12:23N 34°32' E 135°20'0 0.0
2014-Aug-30 11:23N 34°32' E 135°20'0 0.0
2014-Aug-30 10:29N 34°32' E 135°20'0 0.0
2014-Aug-30 09:05N 34°32' E 135°20'611.3
2014-Aug-30 08:33N 34°34' E 135°13'1515.0
2014-Aug-30 07:33N 34°37' E 134°55'10 0.2
2014-Aug-28 12:29N 34°40' E 134°43'1515.0
2014-Aug-28 11:30N 34°38' E 135°01'1212.1
2014-Aug-28 10:32N 34°26' E 135°03'1312.8
2014-Aug-28 09:33N 34°13' E 135°01'8 1.6
2014-Aug-28 04:32N 34°07' E 135°07'1 0.4
2014-Aug-28 03:17N 34°08' E 135°07'4 2.2
2014-Aug-28 01:32N 34°09' E 135°11'0 0.0
2014-Aug-28 00:17N 34°09' E 135°11'0 0.2
2014-Aug-27 23:26N 34°09' E 135°11'2 2.6
2014-Aug-27 22:33N 34°09' E 135°08'0 0.0
2014-Aug-27 21:33N 34°09' E 135°08'0 0.0
2014-Aug-27 20:33N 34°09' E 135°08'0 0.0
2014-Aug-27 19:33N 34°09' E 135°08'0 0.0
2014-Aug-27 18:33N 34°09' E 135°08'0 0.1
2014-Aug-27 17:33N 34°09' E 135°09'0 0.0
2014-Aug-27 16:33N 34°09' E 135°09'1 0.6
2014-Aug-27 15:34N 34°10' E 135°08'1211.8
2014-Aug-27 14:32N 34°20' E 134°59'1313.7
2014-Aug-27 13:33N 34°28' E 135°12'1211.3
2014-Aug-27 12:32N 34°33' E 135°25'1 0.3
2014-Aug-27 07:33N 34°33' E 135°23'1312.9
2014-Aug-27 06:33N 34°26' E 135°10'1212.3
2014-Aug-27 05:33N 34°18' E 134°59'1212.1
2014-Aug-27 04:33N 34°06' E 135°00'5 0.8
2014-Aug-26 22:32N 34°01' E 135°02'10 9.2
2014-Aug-26 21:30N 34°10' E 135°07'0 0.1
2014-Aug-26 20:33N 34°10' E 135°07'0 0.0
2014-Aug-26 19:33N 34°10' E 135°07'0 0.0
2014-Aug-26 18:33N 34°10' E 135°07'0 0.0
2014-Aug-26 17:33N 34°10' E 135°07'0 0.0
2014-Aug-26 16:33N 34°10' E 135°07'0 0.0
2014-Aug-26 15:33N 34°10' E 135°07'0 0.1
2014-Aug-26 14:21N 34°10' E 135°07'0 0.1
2014-Aug-26 13:33N 34°10' E 135°07'0 0.0
2014-Aug-26 12:33N 34°10' E 135°07'7 7.3
2014-Aug-26 11:33N 34°14' E 135°00'1010.0
2014-Aug-26 10:33N 34°24' E 135°04'1413.6
2014-Aug-26 09:34N 34°31' E 135°18'6 1.2
2014-Aug-26 04:23N 34°33' E 135°25'3 4.0
2014-Aug-26 03:33N 34°33' E 135°21'1 1.1
2014-Aug-26 02:23N 34°32' E 135°20'0 0.0
2014-Aug-26 01:23N 34°32' E 135°20'0 0.0
2014-Aug-26 00:29N 34°32' E 135°20'0 0.0
2014-Aug-25 22:29N 34°32' E 135°20'0 0.0
2014-Aug-25 21:29N 34°32' E 135°20'0 0.1
2014-Aug-25 20:23N 34°32' E 135°20'0 0.0
2014-Aug-25 19:29N 34°32' E 135°20'0 0.0
2014-Aug-25 18:23N 34°32' E 135°20'0 0.0
2014-Aug-25 17:05N 34°32' E 135°20'0 0.0
2014-Aug-25 16:17N 34°32' E 135°20'0 0.0
2014-Aug-25 15:23N 34°32' E 135°20'0 0.0
2014-Aug-25 14:29N 34°32' E 135°20'0 0.1
2014-Aug-25 13:17N 34°32' E 135°20'0 0.1
2014-Aug-25 12:29N 34°32' E 135°20'0 0.0
2014-Aug-25 11:23N 34°32' E 135°20'0 0.0
2014-Aug-25 10:29N 34°32' E 135°20'0 0.0
2014-Aug-25 09:29N 34°32' E 135°20'0 0.0
2014-Aug-25 07:29N 34°32' E 135°20'0 0.0
2014-Aug-25 06:23N 34°32' E 135°20'0 0.0
2014-Aug-25 05:29N 34°32' E 135°20'0 0.0
2014-Aug-25 04:29N 34°32' E 135°20'8 8.6
2014-Aug-25 03:33N 34°27' E 135°12'1512.9
2014-Aug-25 02:26N 34°17' E 134°59'1011.8
2014-Aug-25 01:34N 34°10' E 135°07'0 0.1
2014-Aug-25 00:32N 34°10' E 135°07'0 0.0
2014-Aug-24 23:32N 34°10' E 135°07'0 0.0
2014-Aug-24 22:29N 34°10' E 135°07'0 0.0
2014-Aug-24 21:32N 34°10' E 135°07'0 0.0
2014-Aug-24 20:32N 34°10' E 135°07'0 0.0
2014-Aug-24 19:32N 34°10' E 135°07'0 0.0
2014-Aug-24 18:32N 34°10' E 135°07'0 0.0
2014-Aug-24 17:32N 34°10' E 135°07'0 0.0
2014-Aug-24 16:29N 34°10' E 135°07'0 0.0
2014-Aug-24 15:32N 34°10' E 135°07'0 0.0
2014-Aug-24 14:32N 34°10' E 135°07'0 0.0
2014-Aug-24 13:32N 34°10' E 135°07'0 0.1
2014-Aug-24 12:32N 34°10' E 135°07'0 0.1
2014-Aug-24 11:32N 34°10' E 135°07'0 0.1
2014-Aug-24 10:32N 34°10' E 135°07'0 0.0
2014-Aug-24 09:32N 34°10' E 135°07'0 0.0
2014-Aug-24 08:29N 34°10' E 135°07'0 0.0
2014-Aug-24 07:32N 34°10' E 135°07'0 0.1
2014-Aug-24 06:32N 34°10' E 135°07'0 0.1
2014-Aug-24 05:32N 34°10' E 135°07'0 0.0
2014-Aug-24 04:32N 34°10' E 135°07'0 0.0
2014-Aug-24 03:32N 34°10' E 135°07'0 0.0
2014-Aug-24 02:32N 34°10' E 135°07'3 2.6
2014-Aug-24 01:34N 34°12' E 135°09'0 0.0
2014-Aug-24 00:22N 34°12' E 135°09'0 0.0
2014-Aug-23 23:34N 34°12' E 135°09'0 0.0
2014-Aug-23 22:34N 34°12' E 135°09'0 0.0
2014-Aug-23 21:31N 34°12' E 135°09'0 0.0
2014-Aug-23 20:34N 34°12' E 135°09'0 0.0
2014-Aug-23 19:34N 34°12' E 135°09'0 0.0
2014-Aug-23 03:34N 34°12' E 135°09'0 0.0
2014-Aug-23 02:33N 34°12' E 135°09'0 0.0
2014-Aug-23 01:33N 34°12' E 135°09'3 2.8
2014-Aug-23 00:33N 34°10' E 135°07'  

Dump ship's entire track history